Omak, Washington
Current Conditions -  °F | °C
As of 8:53 AM on Saturday 25 Oct 2014 (Local Time) from KOMK Reporting Station
Clear Clear  
Wind Chill: 40°   Ceiling: Unl
Heat Index: 44°   Visibility: 10mi
Dew Point: 42°   Wind: 7mph
Humidity: 93%   Direction: 10°N
Pressure: 29.69"   Gusts: NA
Location:  48.41°N, 119.53°W
Report Text: KOMK 251553Z AUTO 01006KT 10SM CLR 07/06 A2969 RMK AO2 SLP058 T00670056
Loading
Personal Weather Stations






























Interactive Weather Map New forecast layout! Learn more

10-Day Weather Forecast

Advertisements
Track Severe Weather on mobile